Time;durP1;ratioP1;P1;durP2;ratioP2;P2;SDS_P1;SDS_P2;PMS_P1;PMS_P2;Temp;Humidity;BMP_temperature;BMP_pressure;BME280_temperature;BME280_humidity;BME280_pressure;Samples;Min_cycle;Max_cycle;Signal;HPM_P1;HPM_P2
2022/08/27 00:00:24;;;;;;;11.73;9.38;;;21.30;99.90;;;;;;2131768;27;20405;-71
2022/08/27 00:01:27;;;;;;;11.38;8.90;;;21.30;99.90;;;;;;2131606;27;20460;-71
2022/08/27 00:02:32;;;;;;;11.43;9.60;;;21.30;99.90;;;;;;2132439;27;20501;-71
2022/08/27 00:03:35;;;;;;;11.93;9.27;;;21.30;99.90;;;;;;2131535;27;20027;-72
2022/08/27 00:04:36;;;;;;;11.02;9.35;;;21.30;99.90;;;;;;2130723;27;20030;-71
2022/08/27 00:05:37;;;;;;;11.70;9.90;;;21.30;99.90;;;;;;2130648;27;20425;-71
2022/08/27 00:06:37;;;;;;;10.77;9.20;;;21.30;99.90;;;;;;2131600;27;20075;-70
2022/08/27 00:07:39;;;;;;;11.98;9.60;;;21.30;99.90;;;;;;2131450;27;20030;-70
2022/08/27 00:08:45;;;;;;;12.38;9.73;;;21.30;99.90;;;;;;2131285;27;20056;-70
2022/08/27 00:09:46;;;;;;;11.73;9.52;;;21.30;99.90;;;;;;2131274;27;20031;-73
2022/08/27 00:10:47;;;;;;;10.65;9.55;;;21.30;99.90;;;;;;2131542;27;20026;-70
2022/08/27 00:11:47;;;;;;;12.88;9.77;;;21.30;99.90;;;;;;2131919;27;20033;-71
2022/08/27 00:12:48;;;;;;;10.70;9.60;;;21.30;99.90;;;;;;2132760;27;20030;-72
2022/08/27 00:13:49;;;;;;;10.75;9.15;;;21.30;99.90;;;;;;2135241;27;20673;-72
2022/08/27 00:14:49;;;;;;;10.90;9.57;;;21.30;99.90;;;;;;2131972;27;20030;-70
2022/08/27 00:15:51;;;;;;;15.00;10.07;;;21.30;99.90;;;;;;2132386;27;20468;-70
2022/08/27 00:16:51;;;;;;;11.05;9.68;;;21.40;99.90;;;;;;2132540;27;20713;-71
2022/08/27 00:17:52;;;;;;;11.00;9.90;;;21.40;99.90;;;;;;2132471;27;20164;-70
2022/08/27 00:18:54;;;;;;;11.70;9.93;;;21.30;99.90;;;;;;2132096;27;20524;-71
2022/08/27 00:19:55;;;;;;;11.55;9.90;;;21.30;99.90;;;;;;2134427;27;20042;-71
2022/08/27 00:20:55;;;;;;;12.75;9.45;;;21.40;99.90;;;;;;2134728;27;20077;-71
2022/08/27 00:21:56;;;;;;;11.57;9.15;;;21.30;99.90;;;;;;2135564;27;20026;-71
2022/08/27 00:22:57;;;;;;;10.60;9.40;;;21.30;99.90;;;;;;2135666;27;20679;-72
2022/08/27 00:23:58;;;;;;;12.43;9.88;;;21.30;99.90;;;;;;2135317;27;20037;-71
2022/08/27 00:24:59;;;;;;;9.90;8.90;;;21.40;99.90;;;;;;2135240;27;20103;-71
2022/08/27 00:26:00;;;;;;;11.13;9.75;;;21.30;99.90;;;;;;2135302;27;20026;-70
2022/08/27 00:27:01;;;;;;;11.77;9.68;;;21.40;99.90;;;;;;2125272;27;20031;-72
2022/08/27 00:28:02;;;;;;;11.02;9.82;;;21.30;99.90;;;;;;2123102;27;20518;-70
2022/08/27 00:29:03;;;;;;;11.10;9.68;;;21.30;99.90;;;;;;2122795;27;20082;-71
2022/08/27 00:30:07;;;;;;;10.30;9.25;;;21.30;99.90;;;;;;2131689;27;20064;-71
2022/08/27 00:31:09;;;;;;;11.32;8.85;;;21.30;99.90;;;;;;2131644;27;20099;-71
2022/08/27 00:32:16;;;;;;;10.43;9.40;;;21.30;99.90;;;;;;2130748;27;20023;-72
2022/08/27 00:33:20;;;;;;;12.37;9.27;;;21.30;99.90;;;;;;2132319;27;20027;-70
2022/08/27 00:34:22;;;;;;;11.55;9.27;;;21.30;99.90;;;;;;2131368;27;20748;-71
2022/08/27 00:35:24;;;;;;;11.40;8.90;;;21.30;99.90;;;;;;2123747;27;20026;-71
2022/08/27 00:36:25;;;;;;;11.13;8.73;;;21.30;99.90;;;;;;2115329;27;20027;-71
2022/08/27 00:37:25;;;;;;;10.85;9.05;;;21.30;99.90;;;;;;2122408;27;20031;-70
2022/08/27 00:38:26;;;;;;;12.27;9.48;;;21.30;99.90;;;;;;2131038;27;20031;-71
2022/08/27 00:39:27;;;;;;;11.50;9.40;;;21.30;99.90;;;;;;2130865;27;20031;-71
2022/08/27 00:40:28;;;;;;;13.43;9.70;;;21.30;99.90;;;;;;2131085;27;20030;-71
2022/08/27 00:41:29;;;;;;;10.95;9.75;;;21.30;99.90;;;;;;2131630;27;20030;-70
2022/08/27 00:42:29;;;;;;;11.93;10.70;;;21.30;99.90;;;;;;2131448;27;20076;-71
2022/08/27 00:43:41;;;;;;;11.88;10.15;;;21.30;99.90;;;;;;2130987;27;20129;-71
2022/08/27 00:44:43;;;;;;;10.63;9.52;;;21.30;99.90;;;;;;2123654;27;20131;-70
2022/08/27 00:45:45;;;;;;;13.05;10.02;;;21.30;99.90;;;;;;2122417;27;20019;-72
2022/08/27 00:46:53;;;;;;;12.30;10.35;;;21.30;99.90;;;;;;2115693;27;20054;-73
2022/08/27 00:47:59;;;;;;;11.55;10.35;;;21.30;99.90;;;;;;2124197;27;20031;-71
2022/08/27 00:49:10;;;;;;;14.80;10.23;;;21.30;99.90;;;;;;2131701;27;20018;-71
2022/08/27 00:50:17;;;;;;;12.20;9.95;;;21.30;99.90;;;;;;2131712;27;20582;-71
2022/08/27 00:51:21;;;;;;;11.07;9.88;;;21.20;99.90;;;;;;2130674;27;20027;-71
2022/08/27 00:52:32;;;;;;;11.65;9.52;;;21.30;99.90;;;;;;2130802;27;20553;-71
2022/08/27 00:53:34;;;;;;;10.60;9.50;;;21.20;99.90;;;;;;2131244;27;20076;-71
2022/08/27 00:54:35;;;;;;;10.77;9.52;;;21.20;99.90;;;;;;2131237;27;20027;-72
2022/08/27 00:55:47;;;;;;;11.07;9.80;;;21.30;99.90;;;;;;2131250;27;20035;-72
2022/08/27 00:56:49;;;;;;;10.30;9.30;;;21.30;99.90;;;;;;2131118;27;20034;-71
2022/08/27 00:58:19;;;;;;;10.88;9.77;;;21.30;99.90;;;;;;2131074;27;20038;-72
2022/08/27 01:00:11;;;;;;;11.80;9.23;;;21.30;99.90;;;;;;2127431;27;20114;-72
2022/08/27 01:01:06;;;;;;;12.25;9.77;;;21.30;99.90;;;;;;2124945;27;20039;-72
2022/08/27 01:02:19;;;;;;;13.35;9.38;;;21.30;99.90;;;;;;2131910;27;20872;-71
2022/08/27 01:03:21;;;;;;;11.95;10.48;;;21.30;99.90;;;;;;2131937;27;20030;-73
2022/08/27 01:04:22;;;;;;;12.55;10.35;;;21.30;99.90;;;;;;2131786;27;20527;-71
2022/08/27 01:05:27;;;;;;;13.60;9.85;;;21.30;99.90;;;;;;2131784;27;20034;-72
2022/08/27 01:06:35;;;;;;;13.38;10.30;;;21.20;99.90;;;;;;2132168;27;20034;-74
2022/08/27 01:07:48;;;;;;;12.02;10.23;;;21.20;99.90;;;;;;2132016;27;20133;-71
2022/08/27 01:09:12;;;;;;;11.50;10.25;;;21.30;99.90;;;;;;2126936;27;20674;-73
2022/08/27 01:10:25;;;;;;;15.82;9.88;;;21.20;99.90;;;;;;2125880;27;20043;-72
2022/08/27 01:11:26;;;;;;;12.05;9.95;;;21.30;99.90;;;;;;2124360;27;20042;-71
2022/08/27 01:12:40;;;;;;;11.30;10.10;;;21.30;99.90;;;;;;2131244;27;20565;-72
2022/08/27 01:13:41;;;;;;;11.52;10.43;;;21.20;99.90;;;;;;2131408;27;20026;-73
2022/08/27 01:14:51;;;;;;;12.40;10.38;;;21.30;99.90;;;;;;2124165;27;20084;-72
2022/08/27 01:15:57;;;;;;;11.65;10.23;;;21.30;99.90;;;;;;2131955;27;20027;-71
2022/08/27 01:17:01;;;;;;;12.23;10.38;;;21.30;99.90;;;;;;2132939;27;20023;-71
2022/08/27 01:18:04;;;;;;;12.70;10.88;;;21.30;99.90;;;;;;2131790;27;20019;-72
2022/08/27 01:19:08;;;;;;;14.20;10.98;;;21.30;99.90;;;;;;2131310;27;20071;-72
2022/08/27 01:20:21;;;;;;;12.43;10.13;;;21.30;99.90;;;;;;2131399;27;20040;-73
2022/08/27 01:21:36;;;;;;;14.10;11.55;;;21.30;99.90;;;;;;2124724;27;20589;-73
2022/08/27 01:22:45;;;;;;;13.18;11.60;;;21.30;99.90;;;;;;2124297;27;20042;-70
2022/08/27 01:24:13;;;;;;;13.98;11.20;;;21.30;99.90;;;;;;2122887;27;20089;-70
2022/08/27 01:25:16;;;;;;;13.57;12.13;;;21.30;99.90;;;;;;2129677;27;20046;-70
2022/08/27 01:26:18;;;;;;;13.38;10.68;;;21.30;99.90;;;;;;2130057;27;20065;-70
2022/08/27 01:27:23;;;;;;;12.82;10.90;;;21.30;99.90;;;;;;2130777;27;20544;-70
2022/08/27 01:28:25;;;;;;;14.25;11.02;;;21.30;99.90;;;;;;2130662;27;20080;-70
2022/08/27 01:29:27;;;;;;;12.55;11.18;;;21.30;99.90;;;;;;2130678;27;20025;-70
2022/08/27 01:30:28;;;;;;;12.38;10.60;;;21.30;99.90;;;;;;2130692;27;20031;-70
2022/08/27 01:31:29;;;;;;;12.50;11.20;;;21.30;99.90;;;;;;2130589;27;20019;-70
2022/08/27 01:32:32;;;;;;;12.32;10.95;;;21.30;99.90;;;;;;2130964;27;20026;-70
2022/08/27 01:33:32;;;;;;;11.45;10.35;;;21.30;99.90;;;;;;2130028;27;20079;-69
2022/08/27 01:34:33;;;;;;;11.32;10.13;;;21.30;99.90;;;;;;2129900;27;20807;-70
2022/08/27 01:35:34;;;;;;;11.85;10.30;;;21.30;99.90;;;;;;2130972;27;20035;-70
2022/08/27 01:36:35;;;;;;;11.30;10.20;;;21.30;99.90;;;;;;2130730;27;20031;-70
2022/08/27 01:37:36;;;;;;;11.60;10.40;;;21.30;99.90;;;;;;2130852;27;20038;-70
2022/08/27 01:38:37;;;;;;;12.15;10.65;;;21.30;99.90;;;;;;2130588;27;20062;-70
2022/08/27 01:39:41;;;;;;;13.73;10.88;;;21.30;99.90;;;;;;2130596;27;20018;-70
2022/08/27 01:40:42;;;;;;;12.50;11.20;;;21.30;99.90;;;;;;2130489;27;20757;-69
2022/08/27 01:41:43;;;;;;;13.68;11.25;;;21.40;99.90;;;;;;2130349;27;20034;-69
2022/08/27 01:42:47;;;;;;;14.65;11.60;;;21.30;99.90;;;;;;2130578;27;20032;-70
2022/08/27 01:43:48;;;;;;;14.15;11.15;;;21.30;99.90;;;;;;2129561;27;20120;-70
2022/08/27 01:44:51;;;;;;;13.25;11.25;;;21.30;99.90;;;;;;2120925;27;20035;-71
2022/08/27 01:45:55;;;;;;;12.35;10.80;;;21.30;99.90;;;;;;2130203;27;20461;-71
2022/08/27 01:46:55;;;;;;;12.45;11.15;;;21.30;99.90;;;;;;2129907;27;20392;-70
2022/08/27 01:47:58;;;;;;;12.15;10.80;;;21.30;99.90;;;;;;2129958;27;20023;-70
2022/08/27 01:48:58;;;;;;;15.43;11.65;;;21.30;99.90;;;;;;2130548;27;20046;-70
2022/08/27 01:49:59;;;;;;;13.25;11.40;;;21.30;99.90;;;;;;2130554;27;20492;-70
2022/08/27 01:51:00;;;;;;;13.07;11.43;;;21.30;99.90;;;;;;2129777;27;20031;-70
2022/08/27 01:52:01;;;;;;;12.25;10.85;;;21.30;99.90;;;;;;2129952;27;20019;-70
2022/08/27 01:53:12;;;;;;;12.93;11.25;;;21.30;99.90;;;;;;2129988;27;20039;-71
2022/08/27 01:54:12;;;;;;;12.13;10.80;;;21.30;99.90;;;;;;2129973;27;20035;-70
2022/08/27 01:55:16;;;;;;;13.60;10.43;;;21.30;99.90;;;;;;2130029;27;20549;-70
2022/08/27 01:56:17;;;;;;;13.73;11.02;;;21.30;99.90;;;;;;2130514;27;20501;-71
2022/08/27 01:57:18;;;;;;;11.95;10.70;;;21.30;99.90;;;;;;2130601;27;20041;-70
2022/08/27 01:58:23;;;;;;;12.55;10.70;;;21.30;99.90;;;;;;2130318;27;20110;-70
2022/08/27 01:59:24;;;;;;;12.73;10.68;;;21.30;99.90;;;;;;2130514;27;20522;-71
2022/08/27 02:00:29;;;;;;;12.88;10.80;;;21.20;99.90;;;;;;2129872;27;20033;-70
2022/08/27 02:01:29;;;;;;;12.25;10.23;;;21.30;99.90;;;;;;2121589;27;20027;-71
2022/08/27 02:02:31;;;;;;;11.02;9.90;;;21.20;99.90;;;;;;2129906;27;20027;-71
2022/08/27 02:03:35;;;;;;;11.27;9.43;;;21.30;99.90;;;;;;2129934;27;20558;-71
2022/08/27 02:04:36;;;;;;;12.18;10.20;;;21.30;99.90;;;;;;2130314;27;20042;-71
2022/08/27 02:05:38;;;;;;;13.32;10.63;;;21.30;99.90;;;;;;2130379;27;20018;-70
2022/08/27 02:06:39;;;;;;;11.80;10.02;;;21.30;99.90;;;;;;2130161;27;20029;-71
2022/08/27 02:07:40;;;;;;;11.55;10.35;;;21.30;99.90;;;;;;2121696;27;20027;-70
2022/08/27 02:08:41;;;;;;;12.77;10.93;;;21.30;99.90;;;;;;2129913;27;20655;-71
2022/08/27 02:09:41;;;;;;;13.98;11.30;;;21.30;99.90;;;;;;2130574;27;20027;-71
2022/08/27 02:10:44;;;;;;;14.93;11.40;;;21.30;99.90;;;;;;2129938;27;20114;-71
2022/08/27 02:11:44;;;;;;;13.23;11.18;;;21.30;99.90;;;;;;2129726;27;20051;-71
2022/08/27 02:12:45;;;;;;;15.52;12.05;;;21.30;99.90;;;;;;2121193;27;20092;-71
2022/08/27 02:13:46;;;;;;;13.18;11.48;;;21.30;99.90;;;;;;2121138;27;20415;-71
2022/08/27 02:14:46;;;;;;;12.43;10.93;;;21.30;99.90;;;;;;2129919;27;20030;-70
2022/08/27 02:15:47;;;;;;;12.80;10.82;;;21.30;99.90;;;;;;2130474;27;20030;-70
2022/08/27 02:16:49;;;;;;;13.10;11.65;;;21.30;99.90;;;;;;2130440;27;20015;-71
2022/08/27 02:17:51;;;;;;;13.15;11.23;;;21.30;99.90;;;;;;2130499;27;20487;-70
2022/08/27 02:18:53;;;;;;;16.73;12.88;;;21.30;99.90;;;;;;2130445;27;20099;-70
2022/08/27 02:19:53;;;;;;;12.32;11.02;;;21.30;99.90;;;;;;2130401;27;20038;-70
2022/08/27 02:20:54;;;;;;;13.88;11.23;;;21.30;99.90;;;;;;2130394;27;20480;-71
2022/08/27 02:21:59;;;;;;;13.38;10.68;;;21.30;99.90;;;;;;2130086;27;20038;-73
2022/08/27 02:23:00;;;;;;;12.48;10.95;;;21.30;99.90;;;;;;2129745;27;20513;-72
2022/08/27 02:24:01;;;;;;;13.13;11.73;;;21.30;99.90;;;;;;2130408;27;20042;-73
2022/08/27 02:25:03;;;;;;;12.88;11.50;;;21.30;99.90;;;;;;2130032;27;20069;-72
2022/08/27 02:26:03;;;;;;;12.77;11.18;;;21.30;99.90;;;;;;2129696;27;20031;-72
2022/08/27 02:27:04;;;;;;;13.70;11.57;;;21.30;99.90;;;;;;2129713;27;20062;-72
2022/08/27 02:28:05;;;;;;;14.52;11.27;;;21.30;99.90;;;;;;2130327;27;20061;-72
2022/08/27 02:29:07;;;;;;;12.88;10.98;;;21.30;99.90;;;;;;2130368;27;20067;-70
2022/08/27 02:30:11;;;;;;;12.55;11.23;;;21.30;99.90;;;;;;2130040;27;20031;-71
2022/08/27 02:31:13;;;;;;;13.10;11.80;;;21.30;99.90;;;;;;2130240;27;20109;-70
2022/08/27 02:32:14;;;;;;;14.00;11.80;;;21.20;99.90;;;;;;2130089;27;20184;-71
2022/08/27 02:33:15;;;;;;;14.32;11.48;;;21.30;99.90;;;;;;2130267;27;20023;-71
2022/08/27 02:34:17;;;;;;;13.98;11.35;;;21.20;99.90;;;;;;2130241;27;20026;-70
2022/08/27 02:35:20;;;;;;;14.23;11.57;;;21.20;99.90;;;;;;2130210;27;20057;-71
2022/08/27 02:36:20;;;;;;;12.15;10.77;;;21.20;99.90;;;;;;2130106;27;20079;-70
2022/08/27 02:37:21;;;;;;;14.40;12.30;;;21.20;99.90;;;;;;2130472;27;20066;-70
2022/08/27 02:38:23;;;;;;;14.20;12.23;;;21.30;99.90;;;;;;2130365;27;20613;-71
2022/08/27 02:39:23;;;;;;;16.10;12.85;;;21.20;99.90;;;;;;2130717;27;20027;-71
2022/08/27 02:40:25;;;;;;;12.80;11.45;;;21.20;99.90;;;;;;2130538;27;20031;-71
2022/08/27 02:41:25;;;;;;;14.23;11.52;;;21.20;99.90;;;;;;2129611;27;20507;-71
2022/08/27 02:42:26;;;;;;;13.10;11.70;;;21.20;99.90;;;;;;2129880;27;20033;-71
2022/08/27 02:43:27;;;;;;;15.18;12.13;;;21.20;99.90;;;;;;2130483;27;20061;-70
2022/08/27 02:44:27;;;;;;;13.80;11.57;;;21.20;99.90;;;;;;2129517;27;20026;-73
2022/08/27 02:45:28;;;;;;;12.85;11.32;;;21.20;99.90;;;;;;2121058;28;20546;-71
2022/08/27 02:46:29;;;;;;;12.50;11.27;;;21.20;99.90;;;;;;2129477;27;20076;-71
2022/08/27 02:47:29;;;;;;;12.93;11.15;;;21.20;99.90;;;;;;2129678;27;20429;-71
2022/08/27 02:48:30;;;;;;;16.25;12.00;;;21.20;99.90;;;;;;2121184;28;20050;-70
2022/08/27 02:49:31;;;;;;;13.38;11.77;;;21.20;99.90;;;;;;2129472;27;20045;-71
2022/08/27 02:50:32;;;;;;;13.55;11.60;;;21.20;99.90;;;;;;2130171;27;20031;-71
2022/08/27 02:51:33;;;;;;;16.50;12.63;;;21.20;99.90;;;;;;2129958;27;20034;-71
2022/08/27 02:52:34;;;;;;;15.55;12.20;;;21.20;99.90;;;;;;2129440;27;20026;-71
2022/08/27 02:53:36;;;;;;;14.13;12.52;;;21.20;99.90;;;;;;2129523;27;20023;-70
2022/08/27 02:54:37;;;;;;;14.77;11.73;;;21.20;99.90;;;;;;2129928;27;20026;-71
2022/08/27 02:55:38;;;;;;;14.30;12.23;;;21.20;99.90;;;;;;2131109;27;20038;-70
2022/08/27 02:56:39;;;;;;;16.63;11.98;;;21.20;99.90;;;;;;2132162;27;20082;-71
2022/08/27 02:57:39;;;;;;;13.02;11.73;;;21.20;99.90;;;;;;2131187;27;20019;-71
2022/08/27 02:58:40;;;;;;;15.77;11.55;;;21.20;99.90;;;;;;2131177;27;20117;-71
2022/08/27 02:59:41;;;;;;;13.13;11.05;;;21.20;99.90;;;;;;2131790;27;20031;-72
2022/08/27 03:00:43;;;;;;;13.10;11.63;;;21.20;99.90;;;;;;2131356;27;20444;-71
2022/08/27 03:01:43;;;;;;;13.82;11.60;;;21.20;99.90;;;;;;2131084;27;20025;-72
2022/08/27 03:02:44;;;;;;;15.52;12.13;;;21.20;99.90;;;;;;2131781;27;20110;-72
2022/08/27 03:03:45;;;;;;;13.40;11.57;;;21.10;99.90;;;;;;2131844;27;20087;-71
2022/08/27 03:04:47;;;;;;;14.80;12.13;;;21.10;99.90;;;;;;2131617;27;20063;-71
2022/08/27 03:05:47;;;;;;;11.82;10.60;;;21.10;99.90;;;;;;2131922;27;20488;-72
2022/08/27 03:06:48;;;;;;;13.77;10.27;;;21.10;99.90;;;;;;2131947;27;20033;-72
2022/08/27 03:07:49;;;;;;;12.30;9.15;;;21.10;99.90;;;;;;2122627;27;20035;-71
2022/08/27 03:08:50;;;;;;;12.13;8.50;;;21.10;99.90;;;;;;2122666;27;20707;-71
2022/08/27 03:09:51;;;;;;;10.85;9.20;;;21.10;99.90;;;;;;2122727;27;20035;-72
2022/08/27 03:10:53;;;;;;;12.90;9.60;;;21.10;99.90;;;;;;2122385;27;20079;-71
2022/08/27 03:11:54;;;;;;;13.65;9.50;;;21.20;99.90;;;;;;2130844;27;20118;-72
2022/08/27 03:12:55;;;;;;;12.45;9.02;;;21.10;99.90;;;;;;2131726;27;20129;-71
2022/08/27 03:13:55;;;;;;;10.93;7.97;;;21.10;99.90;;;;;;2131888;27;20071;-71
2022/08/27 03:14:56;;;;;;;11.13;8.50;;;21.10;99.90;;;;;;2131645;27;20027;-71
2022/08/27 03:15:57;;;;;;;11.18;8.02;;;21.10;99.90;;;;;;2131717;27;20596;-72
2022/08/27 03:18:16;;;;;;;11.57;8.52;;;21.10;99.90;;;;;;2131753;27;20049;-72
2022/08/27 03:18:20;;;;;;;9.80;8.80;;;21.10;99.90;;;;;;2131641;27;20458;-71
2022/08/27 03:19:21;;;;;;;10.75;7.95;;;21.10;99.90;;;;;;2131626;27;20035;-71
2022/08/27 03:20:23;;;;;;;11.05;9.00;;;21.10;99.90;;;;;;2131767;27;20022;-72
2022/08/27 03:21:24;;;;;;;10.57;8.40;;;21.10;99.90;;;;;;2131336;27;20083;-72
2022/08/27 03:22:25;;;;;;;9.85;8.43;;;21.10;99.90;;;;;;2131032;27;20647;-72
2022/08/27 03:23:31;;;;;;;13.20;8.60;;;21.10;99.90;;;;;;2131150;27;20091;-72
2022/08/27 03:24:33;;;;;;;11.63;9.63;;;21.10;99.90;;;;;;2131424;27;20095;-72
2022/08/27 03:25:33;;;;;;;11.93;9.10;;;21.10;99.90;;;;;;2130980;27;20031;-71
2022/08/27 03:26:34;;;;;;;11.75;9.00;;;21.10;99.90;;;;;;2131226;27;20054;-71
2022/08/27 03:27:35;;;;;;;9.65;8.25;;;21.10;99.90;;;;;;2131486;27;20066;-72
2022/08/27 03:28:36;;;;;;;9.57;8.52;;;21.10;99.90;;;;;;2131629;27;20054;-73
2022/08/27 03:29:37;;;;;;;11.60;8.73;;;21.10;99.90;;;;;;2130890;27;20692;-72
2022/08/27 03:30:38;;;;;;;10.82;8.70;;;21.10;99.90;;;;;;2122482;27;20023;-72
2022/08/27 03:31:38;;;;;;;11.45;8.30;;;21.00;99.90;;;;;;2131020;27;20492;-72
2022/08/27 03:32:39;;;;;;;9.20;8.20;;;21.00;99.90;;;;;;2131575;27;20786;-72
2022/08/27 03:33:41;;;;;;;8.82;7.93;;;21.00;99.90;;;;;;2131616;27;20105;-72
2022/08/27 03:34:41;;;;;;;8.88;7.97;;;21.00;99.90;;;;;;2131365;27;20023;-71
2022/08/27 03:35:42;;;;;;;11.38;8.35;;;21.00;99.90;;;;;;2130937;27;20030;-72
2022/08/27 03:36:43;;;;;;;9.25;8.20;;;21.00;99.90;;;;;;2130865;27;20034;-71
2022/08/27 03:37:44;;;;;;;9.80;8.20;;;21.00;99.90;;;;;;2131722;27;20026;-72
2022/08/27 03:38:45;;;;;;;12.30;9.85;;;21.00;99.90;;;;;;2131486;27;20075;-72
2022/08/27 03:39:45;;;;;;;13.27;9.63;;;21.00;99.90;;;;;;2131496;27;20089;-71
2022/08/27 03:40:46;;;;;;;13.35;10.20;;;21.00;99.90;;;;;;2131495;27;20111;-71
2022/08/27 03:41:47;;;;;;;11.13;9.40;;;21.00;99.90;;;;;;2131639;27;20037;-72
2022/08/27 03:42:47;;;;;;;11.98;8.63;;;21.00;99.90;;;;;;2130945;27;20037;-72
2022/08/27 03:43:51;;;;;;;13.75;9.32;;;21.00;99.90;;;;;;2131713;27;20155;-71
2022/08/27 03:44:52;;;;;;;11.18;8.77;;;21.00;99.90;;;;;;2131914;27;20089;-71
2022/08/27 03:45:53;;;;;;;10.50;8.73;;;21.00;99.90;;;;;;2131503;27;20031;-72
2022/08/27 03:46:54;;;;;;;9.30;8.32;;;21.00;99.90;;;;;;2131377;27;20061;-72
2022/08/27 03:47:55;;;;;;;9.20;8.15;;;21.00;99.90;;;;;;2131408;27;20511;-73
2022/08/27 03:48:56;;;;;;;11.00;9.20;;;21.00;99.90;;;;;;2131573;27;20055;-72
2022/08/27 03:49:59;;;;;;;13.20;9.55;;;21.00;99.90;;;;;;2131538;27;20027;-72
2022/08/27 03:51:05;;;;;;;10.48;9.30;;;21.00;99.90;;;;;;2131478;27;20799;-73
2022/08/27 03:52:07;;;;;;;12.55;9.40;;;21.00;99.90;;;;;;2130944;27;20022;-72
2022/08/27 03:53:08;;;;;;;9.82;8.80;;;21.00;99.90;;;;;;2130831;27;20027;-71
2022/08/27 03:54:09;;;;;;;10.77;9.07;;;21.00;99.90;;;;;;2131432;27;20430;-72
2022/08/27 03:55:10;;;;;;;9.55;8.60;;;21.00;99.90;;;;;;2131071;27;20503;-72
2022/08/27 03:56:10;;;;;;;12.45;9.50;;;21.00;99.90;;;;;;2131196;27;20122;-72
2022/08/27 03:57:11;;;;;;;10.88;9.50;;;21.00;99.90;;;;;;2131132;27;20398;-72
2022/08/27 03:58:12;;;;;;;12.07;9.73;;;21.00;99.90;;;;;;2131298;27;20031;-73
2022/08/27 03:59:14;;;;;;;10.75;9.10;;;21.00;99.90;;;;;;2131296;27;20118;-72
2022/08/27 04:00:15;;;;;;;10.05;8.95;;;21.10;99.90;;;;;;2131433;27;20031;-72
2022/08/27 04:01:18;;;;;;;10.07;9.00;;;21.00;99.90;;;;;;2130693;27;20035;-72
2022/08/27 04:02:19;;;;;;;11.38;8.90;;;21.00;99.90;;;;;;2130787;27;20062;-72
2022/08/27 04:03:19;;;;;;;12.07;9.02;;;21.10;99.90;;;;;;2131268;27;20094;-74
2022/08/27 04:04:20;;;;;;;12.90;9.02;;;21.10;99.90;;;;;;2130332;27;20041;-72
2022/08/27 04:05:22;;;;;;;10.07;9.05;;;21.10;99.90;;;;;;2122233;27;20065;-70
2022/08/27 04:06:22;;;;;;;9.82;8.82;;;21.10;99.90;;;;;;2130512;27;20031;-71
2022/08/27 04:07:23;;;;;;;9.70;8.70;;;21.10;99.90;;;;;;2131413;27;20034;-71
2022/08/27 04:08:25;;;;;;;13.10;8.77;;;21.10;99.90;;;;;;2131306;27;20492;-70
2022/08/27 04:09:25;;;;;;;12.27;9.65;;;21.10;99.90;;;;;;2131283;27;20109;-71
2022/08/27 04:10:26;;;;;;;10.40;9.25;;;21.10;99.90;;;;;;2131384;27;20540;-71
2022/08/27 04:11:28;;;;;;;12.90;10.10;;;21.10;99.90;;;;;;2130755;27;20561;-71
2022/08/27 04:12:28;;;;;;;14.00;10.50;;;21.10;99.90;;;;;;2130567;27;20031;-71
2022/08/27 04:13:29;;;;;;;12.50;10.57;;;21.10;99.90;;;;;;2131239;27;20055;-71
2022/08/27 04:14:30;;;;;;;13.57;10.82;;;21.10;99.90;;;;;;2130337;27;20030;-71
2022/08/27 04:15:31;;;;;;;13.45;10.75;;;21.10;99.90;;;;;;2130819;27;20029;-70
2022/08/27 04:16:33;;;;;;;13.85;10.43;;;21.10;99.90;;;;;;2130978;27;20027;-71
2022/08/27 04:17:34;;;;;;;15.82;11.73;;;21.00;99.90;;;;;;2131389;27;20054;-71
2022/08/27 04:18:34;;;;;;;14.68;11.63;;;21.10;99.90;;;;;;2131171;27;20027;-73
2022/08/27 04:19:35;;;;;;;14.95;11.05;;;21.10;99.90;;;;;;2131208;27;20106;-71
2022/08/27 04:20:36;;;;;;;14.88;10.82;;;21.10;99.90;;;;;;2131237;27;20019;-71
2022/08/27 04:21:36;;;;;;;16.00;11.90;;;21.10;99.90;;;;;;2131275;27;20102;-71
2022/08/27 04:22:38;;;;;;;17.15;13.18;;;21.10;99.90;;;;;;2130580;27;20473;-71
2022/08/27 04:23:40;;;;;;;20.58;13.98;;;21.10;99.90;;;;;;2130701;27;20826;-70
2022/08/27 04:24:41;;;;;;;15.07;12.55;;;21.10;99.90;;;;;;2131217;27;20034;-71
2022/08/27 04:25:43;;;;;;;15.88;12.18;;;21.10;99.90;;;;;;2131324;27;20079;-71
2022/08/27 04:26:46;;;;;;;15.95;12.07;;;21.10;99.90;;;;;;2131458;27;20034;-71
2022/08/27 04:27:47;;;;;;;16.92;12.95;;;21.10;99.90;;;;;;2131089;27;20010;-71
2022/08/27 04:28:47;;;;;;;14.60;13.00;;;21.10;99.90;;;;;;2131242;27;20106;-71
2022/08/27 04:29:48;;;;;;;15.68;12.60;;;21.10;99.90;;;;;;2131011;27;20608;-71
2022/08/27 04:30:49;;;;;;;17.58;13.48;;;21.10;99.90;;;;;;2130027;27;20100;-71
2022/08/27 04:31:50;;;;;;;17.30;14.75;;;21.20;99.90;;;;;;2130380;27;20027;-70
2022/08/27 04:32:50;;;;;;;18.58;14.88;;;21.10;99.90;;;;;;2131163;27;20047;-71
2022/08/27 04:33:52;;;;;;;21.05;15.27;;;21.10;99.90;;;;;;2131029;27;20038;-71
2022/08/27 04:34:58;;;;;;;18.17;14.85;;;21.10;99.90;;;;;;2130838;27;20411;-70
2022/08/27 04:36:00;;;;;;;18.95;14.32;;;21.20;99.90;;;;;;2130493;27;20030;-70
2022/08/27 04:37:01;;;;;;;19.60;14.52;;;21.20;99.90;;;;;;2130419;27;20035;-71
2022/08/27 04:38:03;;;;;;;34.50;24.40;;;21.20;99.90;;;;;;2130386;27;20054;-71
2022/08/27 04:39:04;;;;;;;30.38;22.10;;;21.20;99.90;;;;;;2113409;27;20028;-71
2022/08/27 04:40:05;;;;;;;29.05;21.02;;;21.10;99.90;;;;;;2122074;27;20048;-71
2022/08/27 04:41:21;;;;;;;27.08;19.98;;;21.10;99.90;;;;;;2130518;27;20058;-72
2022/08/27 04:42:21;;;;;;;26.58;20.73;;;21.10;99.90;;;;;;2115634;27;20023;-71
2022/08/27 04:43:22;;;;;;;27.65;20.02;;;21.10;99.90;;;;;;2113697;28;20714;-73
2022/08/27 04:44:25;;;;;;;27.75;20.92;;;21.10;99.90;;;;;;2129962;27;20069;-72
2022/08/27 04:45:26;;;;;;;31.45;21.60;;;21.10;99.90;;;;;;2121759;27;20086;-70
2022/08/27 04:46:32;;;;;;;33.65;23.02;;;21.10;99.90;;;;;;2121941;27;20832;-71
2022/08/27 04:47:33;;;;;;;30.67;22.25;;;21.10;99.90;;;;;;2130471;27;20121;-71
2022/08/27 04:48:35;;;;;;;28.98;21.17;;;21.10;99.90;;;;;;2130996;27;20086;-72
2022/08/27 04:49:36;;;;;;;31.40;21.60;;;21.10;99.90;;;;;;2129965;27;20039;-71
2022/08/27 04:50:41;;;;;;;35.78;23.70;;;21.00;99.90;;;;;;2130886;27;20031;-72
2022/08/27 04:51:42;;;;;;;31.10;22.85;;;21.00;99.90;;;;;;2131084;27;20023;-71
2022/08/27 04:52:43;;;;;;;31.98;21.65;;;21.00;99.90;;;;;;2130907;27;20453;-71
2022/08/27 04:53:44;;;;;;;40.17;24.35;;;21.00;99.90;;;;;;2130885;27;20023;-71
2022/08/27 04:54:44;;;;;;;34.85;24.63;;;21.00;99.90;;;;;;2130620;27;20384;-72
2022/08/27 04:55:50;;;;;;;29.83;22.80;;;20.90;99.90;;;;;;2130144;27;20041;-71
2022/08/27 04:56:51;;;;;;;29.52;20.85;;;20.90;99.90;;;;;;2130346;27;20018;-72
2022/08/27 04:57:52;;;;;;;26.23;19.75;;;20.90;99.90;;;;;;2130914;27;20575;-70
2022/08/27 04:58:52;;;;;;;32.55;23.13;;;20.90;99.90;;;;;;2130173;27;20042;-71
2022/08/27 04:59:53;;;;;;;33.50;21.65;;;20.90;99.90;;;;;;2130269;27;20034;-72
2022/08/27 05:00:56;;;;;;;25.95;20.13;;;20.90;99.90;;;;;;2130685;27;20117;-71
2022/08/27 05:01:58;;;;;;;25.60;19.23;;;20.90;99.90;;;;;;2130992;27;20056;-71
2022/08/27 05:02:58;;;;;;;23.00;17.90;;;20.90;99.90;;;;;;2131001;27;20095;-71
2022/08/27 05:03:59;;;;;;;23.52;18.50;;;20.90;99.90;;;;;;2131099;27;20067;-73
2022/08/27 05:05:00;;;;;;;21.38;17.13;;;20.90;99.90;;;;;;2130968;27;20018;-71
2022/08/27 05:06:03;;;;;;;23.05;17.88;;;20.90;99.90;;;;;;2131329;27;20547;-71
2022/08/27 05:07:08;;;;;;;30.10;20.70;;;21.00;99.90;;;;;;2131348;27;20114;-72
2022/08/27 05:08:13;;;;;;;28.00;21.05;;;21.00;99.90;;;;;;2131119;27;20027;-71
2022/08/27 05:09:15;;;;;;;28.20;19.67;;;21.00;99.90;;;;;;2131280;27;20826;-72
2022/08/27 05:10:15;;;;;;;22.35;18.17;;;20.90;99.90;;;;;;2131181;27;20042;-71
2022/08/27 05:11:19;;;;;;;21.95;17.92;;;21.00;99.90;;;;;;2131030;27;20054;-72
2022/08/27 05:12:21;;;;;;;23.80;18.60;;;21.00;99.90;;;;;;2130793;27;20029;-71
2022/08/27 05:13:23;;;;;;;25.60;19.55;;;21.00;99.90;;;;;;2130229;27;20046;-71
2022/08/27 05:14:28;;;;;;;24.55;18.05;;;21.00;99.90;;;;;;2130063;27;20446;-71
2022/08/27 05:15:30;;;;;;;22.08;17.45;;;21.10;99.90;;;;;;2130006;27;20904;-71
2022/08/27 05:16:30;;;;;;;20.67;16.48;;;21.10;99.90;;;;;;2130349;27;20498;-72
2022/08/27 05:17:31;;;;;;;24.13;19.05;;;21.10;99.90;;;;;;2130677;27;20034;-71
2022/08/27 05:18:32;;;;;;;25.73;21.33;;;21.10;99.90;;;;;;2129558;27;20062;-72